sensor_id;sensor_type;location;lat;lon;timestamp;P1;durP1;ratioP1;P2;durP2;ratioP2
68976;SDS011;56029;52.568;13.588;2023-02-11T00:00:22;42.70;;;17.75;;
68976;SDS011;56029;52.568;13.588;2023-02-11T00:03:07;43.80;;;17.15;;
68976;SDS011;56029;52.568;13.588;2023-02-11T00:05:33;43.10;;;17.27;;
68976;SDS011;56029;52.568;13.588;2023-02-11T00:07:59;40.33;;;17.10;;
68976;SDS011;56029;52.568;13.588;2023-02-11T00:10:25;41.50;;;18.17;;
68976;SDS011;56029;52.568;13.588;2023-02-11T00:12:50;40.00;;;16.90;;
68976;SDS011;56029;52.568;13.588;2023-02-11T00:15:16;42.93;;;16.63;;
68976;SDS011;56029;52.568;13.588;2023-02-11T00:17:41;41.00;;;17.27;;
68976;SDS011;56029;52.568;13.588;2023-02-11T00:20:07;42.97;;;16.90;;
68976;SDS011;56029;52.568;13.588;2023-02-11T00:22:33;39.25;;;16.52;;
68976;SDS011;56029;52.568;13.588;2023-02-11T00:24:58;42.75;;;17.15;;
68976;SDS011;56029;52.568;13.588;2023-02-11T00:27:24;40.03;;;17.27;;
68976;SDS011;56029;52.568;13.588;2023-02-11T00:29:50;45.77;;;17.23;;
68976;SDS011;56029;52.568;13.588;2023-02-11T00:32:15;42.22;;;17.30;;
68976;SDS011;56029;52.568;13.588;2023-02-11T00:34:41;41.63;;;16.40;;
68976;SDS011;56029;52.568;13.588;2023-02-11T00:37:06;43.83;;;16.97;;
68976;SDS011;56029;52.568;13.588;2023-02-11T00:39:32;37.40;;;15.52;;
68976;SDS011;56029;52.568;13.588;2023-02-11T00:41:57;38.30;;;17.00;;
68976;SDS011;56029;52.568;13.588;2023-02-11T00:44:23;40.95;;;17.67;;
68976;SDS011;56029;52.568;13.588;2023-02-11T00:46:49;43.77;;;16.50;;
68976;SDS011;56029;52.568;13.588;2023-02-11T00:49:14;40.10;;;16.90;;
68976;SDS011;56029;52.568;13.588;2023-02-11T00:51:40;40.38;;;17.42;;
68976;SDS011;56029;52.568;13.588;2023-02-11T00:54:06;39.93;;;16.50;;
68976;SDS011;56029;52.568;13.588;2023-02-11T00:56:32;40.05;;;16.63;;
68976;SDS011;56029;52.568;13.588;2023-02-11T00:58:58;39.05;;;16.95;;
68976;SDS011;56029;52.568;13.588;2023-02-11T01:01:24;40.50;;;15.93;;
68976;SDS011;56029;52.568;13.588;2023-02-11T01:03:49;38.33;;;17.45;;
68976;SDS011;56029;52.568;13.588;2023-02-11T01:06:15;38.00;;;14.87;;
68976;SDS011;56029;52.568;13.588;2023-02-11T01:08:41;39.15;;;16.52;;
68976;SDS011;56029;52.568;13.588;2023-02-11T01:11:09;39.43;;;14.87;;
68976;SDS011;56029;52.568;13.588;2023-02-11T01:13:37;38.83;;;16.05;;
68976;SDS011;56029;52.568;13.588;2023-02-11T01:16:03;40.37;;;16.07;;
68976;SDS011;56029;52.568;13.588;2023-02-11T01:18:32;39.40;;;16.65;;
68976;SDS011;56029;52.568;13.588;2023-02-11T01:20:58;40.43;;;17.17;;
68976;SDS011;56029;52.568;13.588;2023-02-11T01:23:23;38.97;;;17.17;;
68976;SDS011;56029;52.568;13.588;2023-02-11T01:25:49;39.73;;;16.60;;
68976;SDS011;56029;52.568;13.588;2023-02-11T01:28:16;35.50;;;15.38;;
68976;SDS011;56029;52.568;13.588;2023-02-11T01:30:42;40.45;;;16.67;;
68976;SDS011;56029;52.568;13.588;2023-02-11T01:33:08;38.17;;;16.27;;
68976;SDS011;56029;52.568;13.588;2023-02-11T01:35:33;37.67;;;16.67;;
68976;SDS011;56029;52.568;13.588;2023-02-11T01:37:59;41.30;;;17.50;;
68976;SDS011;56029;52.568;13.588;2023-02-11T01:40:25;44.35;;;18.65;;
68976;SDS011;56029;52.568;13.588;2023-02-11T01:42:50;40.47;;;17.37;;
68976;SDS011;56029;52.568;13.588;2023-02-11T01:48:06;43.22;;;17.13;;
68976;SDS011;56029;52.568;13.588;2023-02-11T01:50:34;40.17;;;16.73;;
68976;SDS011;56029;52.568;13.588;2023-02-11T01:53:02;38.88;;;16.08;;
68976;SDS011;56029;52.568;13.588;2023-02-11T01:55:47;40.50;;;16.13;;
68976;SDS011;56029;52.568;13.588;2023-02-11T01:58:35;42.33;;;17.70;;
68976;SDS011;56029;52.568;13.588;2023-02-11T02:01:03;41.92;;;17.08;;
68976;SDS011;56029;52.568;13.588;2023-02-11T02:03:31;41.38;;;16.27;;
68976;SDS011;56029;52.568;13.588;2023-02-11T02:06:00;38.00;;;15.73;;
68976;SDS011;56029;52.568;13.588;2023-02-11T02:08:43;38.33;;;15.00;;
68976;SDS011;56029;52.568;13.588;2023-02-11T02:11:18;40.78;;;16.58;;
68976;SDS011;56029;52.568;13.588;2023-02-11T02:13:44;37.22;;;15.65;;
68976;SDS011;56029;52.568;13.588;2023-02-11T02:16:10;37.30;;;15.13;;
68976;SDS011;56029;52.568;13.588;2023-02-11T02:24:44;37.03;;;15.83;;
68976;SDS011;56029;52.568;13.588;2023-02-11T02:27:39;40.90;;;15.68;;
68976;SDS011;56029;52.568;13.588;2023-02-11T02:35:55;38.17;;;16.02;;
68976;SDS011;56029;52.568;13.588;2023-02-11T02:38:33;39.73;;;17.23;;
68976;SDS011;56029;52.568;13.588;2023-02-11T02:41:07;42.38;;;16.92;;
68976;SDS011;56029;52.568;13.588;2023-02-11T02:43:35;37.22;;;15.93;;
68976;SDS011;56029;52.568;13.588;2023-02-11T02:46:24;41.28;;;17.40;;
68976;SDS011;56029;52.568;13.588;2023-02-11T02:48:52;38.75;;;16.35;;
68976;SDS011;56029;52.568;13.588;2023-02-11T03:02:46;31.10;;;12.95;;
68976;SDS011;56029;52.568;13.588;2023-02-11T03:05:40;40.83;;;17.10;;
68976;SDS011;56029;52.568;13.588;2023-02-11T03:10:56;40.95;;;16.75;;
68976;SDS011;56029;52.568;13.588;2023-02-11T03:13:25;37.50;;;14.52;;
68976;SDS011;56029;52.568;13.588;2023-02-11T03:15:54;41.75;;;17.58;;
68976;SDS011;56029;52.568;13.588;2023-02-11T03:18:23;38.57;;;15.80;;
68976;SDS011;56029;52.568;13.588;2023-02-11T03:20:51;44.95;;;17.60;;
68976;SDS011;56029;52.568;13.588;2023-02-11T03:23:28;43.47;;;18.02;;
68976;SDS011;56029;52.568;13.588;2023-02-11T03:26:02;43.45;;;17.70;;
68976;SDS011;56029;52.568;13.588;2023-02-11T03:28:38;45.38;;;18.58;;
68976;SDS011;56029;52.568;13.588;2023-02-11T03:34:07;40.17;;;17.77;;
68976;SDS011;56029;52.568;13.588;2023-02-11T03:36:40;39.22;;;17.00;;
68976;SDS011;56029;52.568;13.588;2023-02-11T03:39:16;43.85;;;18.00;;
68976;SDS011;56029;52.568;13.588;2023-02-11T03:41:45;39.30;;;16.55;;
68976;SDS011;56029;52.568;13.588;2023-02-11T03:44:13;43.13;;;17.57;;
68976;SDS011;56029;52.568;13.588;2023-02-11T03:46:42;44.28;;;17.88;;
68976;SDS011;56029;52.568;13.588;2023-02-11T03:49:12;42.97;;;18.00;;
68976;SDS011;56029;52.568;13.588;2023-02-11T03:51:40;44.42;;;18.55;;
68976;SDS011;56029;52.568;13.588;2023-02-11T03:54:12;42.22;;;18.45;;
68976;SDS011;56029;52.568;13.588;2023-02-11T03:56:50;40.90;;;17.13;;
68976;SDS011;56029;52.568;13.588;2023-02-11T03:59:18;44.05;;;18.13;;
68976;SDS011;56029;52.568;13.588;2023-02-11T04:01:43;41.57;;;17.83;;
68976;SDS011;56029;52.568;13.588;2023-02-11T04:04:09;38.78;;;16.67;;
68976;SDS011;56029;52.568;13.588;2023-02-11T04:06:34;46.23;;;18.40;;
68976;SDS011;56029;52.568;13.588;2023-02-11T04:09:00;47.08;;;20.30;;
68976;SDS011;56029;52.568;13.588;2023-02-11T04:11:26;46.13;;;19.53;;
68976;SDS011;56029;52.568;13.588;2023-02-11T04:13:52;42.13;;;18.50;;
68976;SDS011;56029;52.568;13.588;2023-02-11T04:16:17;43.97;;;17.50;;
68976;SDS011;56029;52.568;13.588;2023-02-11T04:18:43;43.20;;;18.20;;
68976;SDS011;56029;52.568;13.588;2023-02-11T04:21:08;43.87;;;18.67;;
68976;SDS011;56029;52.568;13.588;2023-02-11T04:23:34;44.40;;;18.93;;
68976;SDS011;56029;52.568;13.588;2023-02-11T04:25:59;48.90;;;19.55;;
68976;SDS011;56029;52.568;13.588;2023-02-11T04:28:25;42.57;;;17.47;;
68976;SDS011;56029;52.568;13.588;2023-02-11T04:30:53;41.42;;;17.35;;
68976;SDS011;56029;52.568;13.588;2023-02-11T04:33:20;42.25;;;17.27;;
68976;SDS011;56029;52.568;13.588;2023-02-11T04:35:45;47.60;;;19.33;;
68976;SDS011;56029;52.568;13.588;2023-02-11T04:38:11;39.13;;;16.48;;
68976;SDS011;56029;52.568;13.588;2023-02-11T04:40:37;47.87;;;19.73;;
68976;SDS011;56029;52.568;13.588;2023-02-11T04:43:03;45.92;;;18.45;;
68976;SDS011;56029;52.568;13.588;2023-02-11T04:45:28;52.08;;;20.75;;
68976;SDS011;56029;52.568;13.588;2023-02-11T04:47:54;45.13;;;20.17;;
68976;SDS011;56029;52.568;13.588;2023-02-11T04:50:19;49.17;;;20.33;;
68976;SDS011;56029;52.568;13.588;2023-02-11T04:52:45;50.97;;;19.23;;
68976;SDS011;56029;52.568;13.588;2023-02-11T04:55:11;48.27;;;19.33;;
68976;SDS011;56029;52.568;13.588;2023-02-11T04:57:36;52.55;;;20.60;;
68976;SDS011;56029;52.568;13.588;2023-02-11T05:00:02;46.20;;;18.67;;
68976;SDS011;56029;52.568;13.588;2023-02-11T05:02:28;47.78;;;19.40;;
68976;SDS011;56029;52.568;13.588;2023-02-11T05:04:53;47.13;;;19.97;;
68976;SDS011;56029;52.568;13.588;2023-02-11T05:07:19;50.27;;;20.57;;
68976;SDS011;56029;52.568;13.588;2023-02-11T05:09:45;52.72;;;20.15;;
68976;SDS011;56029;52.568;13.588;2023-02-11T05:12:11;50.77;;;20.50;;
68976;SDS011;56029;52.568;13.588;2023-02-11T05:14:36;54.28;;;21.40;;
68976;SDS011;56029;52.568;13.588;2023-02-11T05:17:02;43.20;;;17.87;;
68976;SDS011;56029;52.568;13.588;2023-02-11T05:19:27;40.40;;;17.13;;
68976;SDS011;56029;52.568;13.588;2023-02-11T05:21:53;54.05;;;21.50;;
68976;SDS011;56029;52.568;13.588;2023-02-11T05:24:19;52.83;;;20.47;;
68976;SDS011;56029;52.568;13.588;2023-02-11T05:26:45;49.20;;;19.88;;
68976;SDS011;56029;52.568;13.588;2023-02-11T05:29:10;51.13;;;19.67;;
68976;SDS011;56029;52.568;13.588;2023-02-11T05:31:36;55.07;;;21.00;;
68976;SDS011;56029;52.568;13.588;2023-02-11T05:34:01;57.43;;;21.67;;
68976;SDS011;56029;52.568;13.588;2023-02-11T05:36:28;55.50;;;21.70;;
68976;SDS011;56029;52.568;13.588;2023-02-11T05:38:54;51.55;;;20.73;;
68976;SDS011;56029;52.568;13.588;2023-02-11T05:41:20;54.10;;;21.70;;
68976;SDS011;56029;52.568;13.588;2023-02-11T05:43:49;52.95;;;22.33;;
68976;SDS011;56029;52.568;13.588;2023-02-11T05:46:17;52.03;;;21.13;;
68976;SDS011;56029;52.568;13.588;2023-02-11T05:48:43;55.03;;;21.33;;
68976;SDS011;56029;52.568;13.588;2023-02-11T05:51:09;54.10;;;20.67;;
68976;SDS011;56029;52.568;13.588;2023-02-11T05:53:34;47.37;;;19.43;;
68976;SDS011;56029;52.568;13.588;2023-02-11T05:56:00;53.88;;;21.30;;
68976;SDS011;56029;52.568;13.588;2023-02-11T05:58:26;56.40;;;22.03;;
68976;SDS011;56029;52.568;13.588;2023-02-11T06:00:52;57.40;;;22.50;;
68976;SDS011;56029;52.568;13.588;2023-02-11T06:03:17;58.53;;;22.03;;
68976;SDS011;56029;52.568;13.588;2023-02-11T06:05:44;48.55;;;19.88;;
68976;SDS011;56029;52.568;13.588;2023-02-11T06:08:10;56.97;;;20.38;;
68976;SDS011;56029;52.568;13.588;2023-02-11T06:10:36;56.50;;;22.27;;
68976;SDS011;56029;52.568;13.588;2023-02-11T06:13:01;40.25;;;17.98;;
68976;SDS011;56029;52.568;13.588;2023-02-11T06:15:27;52.63;;;22.00;;
68976;SDS011;56029;52.568;13.588;2023-02-11T06:17:53;55.42;;;22.63;;
68976;SDS011;56029;52.568;13.588;2023-02-11T06:20:18;50.73;;;20.60;;
68976;SDS011;56029;52.568;13.588;2023-02-11T06:22:44;46.17;;;18.10;;
68976;SDS011;56029;52.568;13.588;2023-02-11T06:25:10;64.25;;;23.92;;
68976;SDS011;56029;52.568;13.588;2023-02-11T06:27:36;58.85;;;24.15;;
68976;SDS011;56029;52.568;13.588;2023-02-11T06:30:03;65.18;;;23.98;;
68976;SDS011;56029;52.568;13.588;2023-02-11T06:32:29;54.03;;;20.17;;
68976;SDS011;56029;52.568;13.588;2023-02-11T06:34:55;60.13;;;23.90;;
68976;SDS011;56029;52.568;13.588;2023-02-11T06:37:20;64.07;;;24.87;;
68976;SDS011;56029;52.568;13.588;2023-02-11T06:39:46;63.55;;;24.42;;
68976;SDS011;56029;52.568;13.588;2023-02-11T06:42:11;59.50;;;23.87;;
68976;SDS011;56029;52.568;13.588;2023-02-11T06:44:37;62.93;;;24.53;;
68976;SDS011;56029;52.568;13.588;2023-02-11T06:47:03;61.25;;;23.95;;
68976;SDS011;56029;52.568;13.588;2023-02-11T06:49:28;67.07;;;24.63;;
68976;SDS011;56029;52.568;13.588;2023-02-11T06:51:54;61.90;;;24.88;;
68976;SDS011;56029;52.568;13.588;2023-02-11T06:54:20;61.80;;;24.27;;
68976;SDS011;56029;52.568;13.588;2023-02-11T06:56:45;63.57;;;23.43;;
68976;SDS011;56029;52.568;13.588;2023-02-11T06:59:14;64.00;;;22.63;;
68976;SDS011;56029;52.568;13.588;2023-02-11T07:01:41;60.75;;;23.58;;
68976;SDS011;56029;52.568;13.588;2023-02-11T07:04:07;60.28;;;23.30;;
68976;SDS011;56029;52.568;13.588;2023-02-11T07:06:32;61.80;;;24.77;;
68976;SDS011;56029;52.568;13.588;2023-02-11T07:08:58;60.13;;;23.02;;
68976;SDS011;56029;52.568;13.588;2023-02-11T07:11:25;62.70;;;24.07;;
68976;SDS011;56029;52.568;13.588;2023-02-11T07:13:54;61.17;;;24.55;;
68976;SDS011;56029;52.568;13.588;2023-02-11T07:16:23;59.28;;;22.65;;
68976;SDS011;56029;52.568;13.588;2023-02-11T07:18:49;59.83;;;24.73;;
68976;SDS011;56029;52.568;13.588;2023-02-11T07:21:17;63.90;;;24.47;;
68976;SDS011;56029;52.568;13.588;2023-02-11T07:23:44;57.58;;;23.90;;
68976;SDS011;56029;52.568;13.588;2023-02-11T07:26:11;61.92;;;24.92;;
68976;SDS011;56029;52.568;13.588;2023-02-11T07:28:39;59.83;;;24.00;;
68976;SDS011;56029;52.568;13.588;2023-02-11T07:31:15;63.47;;;24.60;;
68976;SDS011;56029;52.568;13.588;2023-02-11T07:33:43;65.75;;;24.15;;
68976;SDS011;56029;52.568;13.588;2023-02-11T07:36:10;63.78;;;24.48;;
68976;SDS011;56029;52.568;13.588;2023-02-11T07:38:37;64.57;;;25.20;;
68976;SDS011;56029;52.568;13.588;2023-02-11T07:41:04;60.35;;;23.05;;
68976;SDS011;56029;52.568;13.588;2023-02-11T07:43:35;61.90;;;24.07;;
68976;SDS011;56029;52.568;13.588;2023-02-11T07:46:02;58.88;;;23.65;;
68976;SDS011;56029;52.568;13.588;2023-02-11T07:48:31;62.92;;;22.17;;
68976;SDS011;56029;52.568;13.588;2023-02-11T07:51:04;56.80;;;22.87;;
68976;SDS011;56029;52.568;13.588;2023-02-11T07:53:35;61.40;;;23.77;;
68976;SDS011;56029;52.568;13.588;2023-02-11T07:56:02;55.42;;;22.20;;
68976;SDS011;56029;52.568;13.588;2023-02-11T07:58:28;54.40;;;20.90;;
68976;SDS011;56029;52.568;13.588;2023-02-11T08:00:54;58.78;;;23.77;;
68976;SDS011;56029;52.568;13.588;2023-02-11T08:03:19;59.60;;;22.90;;
68976;SDS011;56029;52.568;13.588;2023-02-11T08:05:45;57.97;;;22.77;;
68976;SDS011;56029;52.568;13.588;2023-02-11T08:08:10;59.73;;;22.43;;
68976;SDS011;56029;52.568;13.588;2023-02-11T08:10:36;63.57;;;23.83;;
68976;SDS011;56029;52.568;13.588;2023-02-11T08:13:02;66.50;;;24.52;;
68976;SDS011;56029;52.568;13.588;2023-02-11T08:15:27;57.83;;;23.27;;
68976;SDS011;56029;52.568;13.588;2023-02-11T08:17:53;58.27;;;23.73;;
68976;SDS011;56029;52.568;13.588;2023-02-11T08:20:18;59.40;;;22.77;;
68976;SDS011;56029;52.568;13.588;2023-02-11T08:22:44;59.83;;;22.83;;
68976;SDS011;56029;52.568;13.588;2023-02-11T08:25:09;64.00;;;24.47;;
68976;SDS011;56029;52.568;13.588;2023-02-11T08:27:35;60.60;;;23.25;;
68976;SDS011;56029;52.568;13.588;2023-02-11T08:30:00;62.70;;;23.07;;
68976;SDS011;56029;52.568;13.588;2023-02-11T08:32:26;58.13;;;21.65;;
68976;SDS011;56029;52.568;13.588;2023-02-11T08:34:52;58.53;;;23.73;;
68976;SDS011;56029;52.568;13.588;2023-02-11T08:37:18;52.92;;;20.20;;
68976;SDS011;56029;52.568;13.588;2023-02-11T08:39:44;59.92;;;23.90;;
68976;SDS011;56029;52.568;13.588;2023-02-11T08:42:11;65.10;;;24.67;;
68976;SDS011;56029;52.568;13.588;2023-02-11T08:44:37;63.97;;;24.13;;
68976;SDS011;56029;52.568;13.588;2023-02-11T08:47:03;55.08;;;20.88;;
68976;SDS011;56029;52.568;13.588;2023-02-11T08:49:29;65.03;;;24.17;;
68976;SDS011;56029;52.568;13.588;2023-02-11T08:51:56;67.07;;;22.63;;
68976;SDS011;56029;52.568;13.588;2023-02-11T08:54:26;66.18;;;24.42;;
68976;SDS011;56029;52.568;13.588;2023-02-11T08:56:52;67.13;;;24.17;;
68976;SDS011;56029;52.568;13.588;2023-02-11T08:59:17;64.53;;;23.13;;
68976;SDS011;56029;52.568;13.588;2023-02-11T09:01:43;61.00;;;24.70;;
68976;SDS011;56029;52.568;13.588;2023-02-11T09:04:10;57.85;;;22.40;;
68976;SDS011;56029;52.568;13.588;2023-02-11T09:06:36;56.63;;;23.27;;
68976;SDS011;56029;52.568;13.588;2023-02-11T09:09:01;50.90;;;20.90;;
68976;SDS011;56029;52.568;13.588;2023-02-11T09:11:29;63.65;;;23.83;;
68976;SDS011;56029;52.568;13.588;2023-02-11T09:13:56;62.90;;;23.30;;
68976;SDS011;56029;52.568;13.588;2023-02-11T09:16:23;56.83;;;21.58;;
68976;SDS011;56029;52.568;13.588;2023-02-11T09:18:51;53.53;;;21.20;;
68976;SDS011;56029;52.568;13.588;2023-02-11T09:21:17;62.78;;;24.27;;
68976;SDS011;56029;52.568;13.588;2023-02-11T09:23:44;59.43;;;22.63;;
68976;SDS011;56029;52.568;13.588;2023-02-11T09:26:16;50.75;;;20.23;;
68976;SDS011;56029;52.568;13.588;2023-02-11T09:28:43;54.22;;;21.13;;
68976;SDS011;56029;52.568;13.588;2023-02-11T09:31:10;47.08;;;17.63;;
68976;SDS011;56029;52.568;13.588;2023-02-11T09:33:38;51.17;;;20.20;;
68976;SDS011;56029;52.568;13.588;2023-02-11T09:36:06;53.33;;;20.23;;
68976;SDS011;56029;52.568;13.588;2023-02-11T09:38:32;62.20;;;23.13;;
68976;SDS011;56029;52.568;13.588;2023-02-11T09:40:58;59.37;;;21.87;;
68976;SDS011;56029;52.568;13.588;2023-02-11T09:43:36;61.08;;;22.35;;
68976;SDS011;56029;52.568;13.588;2023-02-11T09:46:13;57.08;;;22.13;;
68976;SDS011;56029;52.568;13.588;2023-02-11T09:48:41;63.40;;;22.50;;
68976;SDS011;56029;52.568;13.588;2023-02-11T09:51:29;58.78;;;22.65;;
68976;SDS011;56029;52.568;13.588;2023-02-11T09:54:04;59.67;;;21.07;;
68976;SDS011;56029;52.568;13.588;2023-02-11T09:56:36;61.05;;;22.05;;
68976;SDS011;56029;52.568;13.588;2023-02-11T09:59:03;58.77;;;22.97;;
68976;SDS011;56029;52.568;13.588;2023-02-11T10:01:30;57.10;;;21.45;;
68976;SDS011;56029;52.568;13.588;2023-02-11T10:15:03;52.55;;;19.85;;
68976;SDS011;56029;52.568;13.588;2023-02-11T10:20:26;59.08;;;21.83;;
68976;SDS011;56029;52.568;13.588;2023-02-11T10:22:59;62.00;;;23.60;;
68976;SDS011;56029;52.568;13.588;2023-02-11T10:25:33;56.33;;;21.27;;
68976;SDS011;56029;52.568;13.588;2023-02-11T10:28:10;48.35;;;18.13;;
68976;SDS011;56029;52.568;13.588;2023-02-11T10:30:51;60.80;;;21.58;;
68976;SDS011;56029;52.568;13.588;2023-02-11T10:36:01;62.55;;;22.17;;
68976;SDS011;56029;52.568;13.588;2023-02-11T10:38:28;60.63;;;22.33;;
68976;SDS011;56029;52.568;13.588;2023-02-11T10:40:53;50.65;;;19.92;;
68976;SDS011;56029;52.568;13.588;2023-02-11T10:43:20;62.47;;;23.37;;
68976;SDS011;56029;52.568;13.588;2023-02-11T10:45:51;52.88;;;19.25;;
68976;SDS011;56029;52.568;13.588;2023-02-11T10:56:49;59.78;;;21.23;;
68976;SDS011;56029;52.568;13.588;2023-02-11T10:59:29;55.55;;;20.13;;
68976;SDS011;56029;52.568;13.588;2023-02-11T11:01:59;60.00;;;22.25;;
68976;SDS011;56029;52.568;13.588;2023-02-11T11:06:55;59.70;;;21.90;;
68976;SDS011;56029;52.568;13.588;2023-02-11T11:09:27;60.72;;;21.42;;
68976;SDS011;56029;52.568;13.588;2023-02-11T11:11:55;57.53;;;20.25;;
68976;SDS011;56029;52.568;13.588;2023-02-11T11:14:21;61.92;;;22.25;;
68976;SDS011;56029;52.568;13.588;2023-02-11T11:16:53;60.88;;;22.35;;
68976;SDS011;56029;52.568;13.588;2023-02-11T11:19:20;48.07;;;19.73;;
68976;SDS011;56029;52.568;13.588;2023-02-11T11:21:48;59.55;;;21.08;;
68976;SDS011;56029;52.568;13.588;2023-02-11T11:24:22;57.22;;;21.65;;
68976;SDS011;56029;52.568;13.588;2023-02-11T11:26:54;60.75;;;21.98;;
68976;SDS011;56029;52.568;13.588;2023-02-11T11:29:23;54.70;;;21.10;;
68976;SDS011;56029;52.568;13.588;2023-02-11T11:32:02;44.67;;;17.23;;
68976;SDS011;56029;52.568;13.588;2023-02-11T11:34:41;53.50;;;19.88;;
68976;SDS011;56029;52.568;13.588;2023-02-11T11:37:19;53.35;;;19.40;;
68976;SDS011;56029;52.568;13.588;2023-02-11T11:39:52;47.05;;;18.48;;
68976;SDS011;56029;52.568;13.588;2023-02-11T11:44:59;52.87;;;19.43;;
68976;SDS011;56029;52.568;13.588;2023-02-11T11:47:28;47.22;;;18.58;;
68976;SDS011;56029;52.568;13.588;2023-02-11T11:50:08;50.45;;;18.80;;
68976;SDS011;56029;52.568;13.588;2023-02-11T11:55:19;49.45;;;18.05;;
68976;SDS011;56029;52.568;13.588;2023-02-11T11:57:48;49.83;;;19.20;;
68976;SDS011;56029;52.568;13.588;2023-02-11T12:00:23;48.88;;;18.92;;
68976;SDS011;56029;52.568;13.588;2023-02-11T12:03:13;43.80;;;16.63;;
68976;SDS011;56029;52.568;13.588;2023-02-11T12:08:55;47.90;;;17.73;;
68976;SDS011;56029;52.568;13.588;2023-02-11T12:11:57;40.40;;;14.95;;
68976;SDS011;56029;52.568;13.588;2023-02-11T12:26:12;39.33;;;14.27;;
68976;SDS011;56029;52.568;13.588;2023-02-11T12:29:04;44.42;;;16.20;;
68976;SDS011;56029;52.568;13.588;2023-02-11T12:34:36;40.35;;;15.27;;
68976;SDS011;56029;52.568;13.588;2023-02-11T12:51:39;33.70;;;13.10;;
68976;SDS011;56029;52.568;13.588;2023-02-11T12:56:36;34.55;;;14.73;;
68976;SDS011;56029;52.568;13.588;2023-02-11T12:59:18;33.00;;;13.43;;
68976;SDS011;56029;52.568;13.588;2023-02-11T13:01:53;40.45;;;14.82;;
68976;SDS011;56029;52.568;13.588;2023-02-11T13:04:24;39.93;;;13.93;;
68976;SDS011;56029;52.568;13.588;2023-02-11T13:06:55;36.58;;;13.20;;
68976;SDS011;56029;52.568;13.588;2023-02-11T13:09:25;36.22;;;14.48;;
68976;SDS011;56029;52.568;13.588;2023-02-11T13:11:57;35.75;;;12.77;;
68976;SDS011;56029;52.568;13.588;2023-02-11T13:14:46;40.95;;;15.65;;
68976;SDS011;56029;52.568;13.588;2023-02-11T13:17:21;35.53;;;14.50;;
68976;SDS011;56029;52.568;13.588;2023-02-11T13:19:57;35.00;;;14.60;;
68976;SDS011;56029;52.568;13.588;2023-02-11T13:22:37;42.22;;;14.35;;
68976;SDS011;56029;52.568;13.588;2023-02-11T13:25:19;33.47;;;14.10;;
68976;SDS011;56029;52.568;13.588;2023-02-11T13:27:57;40.20;;;14.10;;
68976;SDS011;56029;52.568;13.588;2023-02-11T13:30:27;34.70;;;13.63;;
68976;SDS011;56029;52.568;13.588;2023-02-11T13:35:34;38.10;;;15.93;;
68976;SDS011;56029;52.568;13.588;2023-02-11T13:38:18;34.95;;;13.88;;
68976;SDS011;56029;52.568;13.588;2023-02-11T13:43:27;32.77;;;12.50;;
68976;SDS011;56029;52.568;13.588;2023-02-11T13:45:58;37.92;;;14.80;;
68976;SDS011;56029;52.568;13.588;2023-02-11T13:48:27;35.58;;;13.35;;
68976;SDS011;56029;52.568;13.588;2023-02-11T13:50:56;39.78;;;15.50;;
68976;SDS011;56029;52.568;13.588;2023-02-11T13:53:25;38.55;;;14.85;;
68976;SDS011;56029;52.568;13.588;2023-02-11T13:56:08;32.60;;;13.20;;
68976;SDS011;56029;52.568;13.588;2023-02-11T13:58:38;31.13;;;12.45;;
68976;SDS011;56029;52.568;13.588;2023-02-11T14:01:13;33.42;;;12.48;;
68976;SDS011;56029;52.568;13.588;2023-02-11T14:10:57;28.03;;;9.80;;
68976;SDS011;56029;52.568;13.588;2023-02-11T14:16:12;34.72;;;14.10;;
68976;SDS011;56029;52.568;13.588;2023-02-11T14:21:12;34.85;;;13.60;;
68976;SDS011;56029;52.568;13.588;2023-02-11T14:23:38;32.87;;;12.30;;
68976;SDS011;56029;52.568;13.588;2023-02-11T14:26:15;34.13;;;13.50;;
68976;SDS011;56029;52.568;13.588;2023-02-11T14:31:43;29.13;;;11.98;;
68976;SDS011;56029;52.568;13.588;2023-02-11T14:34:31;24.75;;;10.40;;
68976;SDS011;56029;52.568;13.588;2023-02-11T14:39:54;31.73;;;13.33;;
68976;SDS011;56029;52.568;13.588;2023-02-11T14:42:23;28.70;;;11.17;;
68976;SDS011;56029;52.568;13.588;2023-02-11T14:44:51;27.20;;;10.75;;
68976;SDS011;56029;52.568;13.588;2023-02-11T14:47:21;26.55;;;10.32;;
68976;SDS011;56029;52.568;13.588;2023-02-11T14:49:50;26.58;;;11.23;;
68976;SDS011;56029;52.568;13.588;2023-02-11T14:52:21;27.10;;;10.90;;
68976;SDS011;56029;52.568;13.588;2023-02-11T14:57:32;27.95;;;11.40;;
68976;SDS011;56029;52.568;13.588;2023-02-11T15:00:03;26.73;;;10.25;;
68976;SDS011;56029;52.568;13.588;2023-02-11T15:02:41;29.10;;;12.30;;
68976;SDS011;56029;52.568;13.588;2023-02-11T15:07:53;23.98;;;9.05;;
68976;SDS011;56029;52.568;13.588;2023-02-11T15:10:26;27.40;;;10.95;;
68976;SDS011;56029;52.568;13.588;2023-02-11T15:12:56;23.05;;;9.60;;
68976;SDS011;56029;52.568;13.588;2023-02-11T15:15:24;26.20;;;11.00;;
68976;SDS011;56029;52.568;13.588;2023-02-11T15:17:50;21.75;;;8.45;;
68976;SDS011;56029;52.568;13.588;2023-02-11T15:20:21;26.35;;;10.10;;
68976;SDS011;56029;52.568;13.588;2023-02-11T15:22:51;24.73;;;11.23;;
68976;SDS011;56029;52.568;13.588;2023-02-11T15:25:23;20.30;;;9.20;;
68976;SDS011;56029;52.568;13.588;2023-02-11T15:27:50;25.83;;;10.85;;
68976;SDS011;56029;52.568;13.588;2023-02-11T15:32:49;18.80;;;8.37;;
68976;SDS011;56029;52.568;13.588;2023-02-11T15:35:22;23.48;;;8.75;;
68976;SDS011;56029;52.568;13.588;2023-02-11T15:37:48;24.40;;;10.38;;
68976;SDS011;56029;52.568;13.588;2023-02-11T15:40:15;25.57;;;10.90;;
68976;SDS011;56029;52.568;13.588;2023-02-11T15:45:21;22.35;;;9.68;;
68976;SDS011;56029;52.568;13.588;2023-02-11T15:47:54;21.98;;;8.50;;
68976;SDS011;56029;52.568;13.588;2023-02-11T15:50:28;24.27;;;10.13;;
68976;SDS011;56029;52.568;13.588;2023-02-11T15:52:59;21.93;;;8.47;;
68976;SDS011;56029;52.568;13.588;2023-02-11T15:55:27;20.83;;;8.68;;
68976;SDS011;56029;52.568;13.588;2023-02-11T15:57:56;23.08;;;9.68;;
68976;SDS011;56029;52.568;13.588;2023-02-11T16:00:24;23.73;;;8.95;;
68976;SDS011;56029;52.568;13.588;2023-02-11T16:03:01;22.88;;;9.15;;
68976;SDS011;56029;52.568;13.588;2023-02-11T16:07:56;27.25;;;9.93;;
68976;SDS011;56029;52.568;13.588;2023-02-11T16:13:01;19.73;;;7.75;;
68976;SDS011;56029;52.568;13.588;2023-02-11T16:18:13;18.97;;;8.47;;
68976;SDS011;56029;52.568;13.588;2023-02-11T16:20:51;23.65;;;9.25;;
68976;SDS011;56029;52.568;13.588;2023-02-11T16:23:37;24.85;;;9.13;;
68976;SDS011;56029;52.568;13.588;2023-02-11T16:26:11;22.83;;;8.77;;
68976;SDS011;56029;52.568;13.588;2023-02-11T16:28:47;23.60;;;9.85;;
68976;SDS011;56029;52.568;13.588;2023-02-11T16:31:12;19.97;;;8.33;;
68976;SDS011;56029;52.568;13.588;2023-02-11T16:33:38;20.47;;;8.30;;
68976;SDS011;56029;52.568;13.588;2023-02-11T16:36:11;23.08;;;8.98;;
68976;SDS011;56029;52.568;13.588;2023-02-11T16:38:38;18.95;;;6.88;;
68976;SDS011;56029;52.568;13.588;2023-02-11T16:41:04;25.15;;;9.98;;
68976;SDS011;56029;52.568;13.588;2023-02-11T16:43:30;25.50;;;10.10;;